sensor_id;sensor_type;location;lat;lon;timestamp;P1;durP1;ratioP1;P2;durP2;ratioP2
20727;SDS011;10525;50.154;8.198;2022-08-06T00:00:15;5.25;;;2.63;;
20727;SDS011;10525;50.154;8.198;2022-08-06T00:02:42;3.80;;;2.58;;
20727;SDS011;10525;50.154;8.198;2022-08-06T00:05:08;2.60;;;2.50;;
20727;SDS011;10525;50.154;8.198;2022-08-06T00:07:37;2.33;;;2.25;;
20727;SDS011;10525;50.154;8.198;2022-08-06T00:10:04;3.00;;;2.47;;
20727;SDS011;10525;50.154;8.198;2022-08-06T00:12:32;2.65;;;2.53;;
20727;SDS011;10525;50.154;8.198;2022-08-06T00:14:59;2.60;;;2.50;;
20727;SDS011;10525;50.154;8.198;2022-08-06T00:17:26;3.17;;;2.53;;
20727;SDS011;10525;50.154;8.198;2022-08-06T00:19:53;2.17;;;2.17;;
20727;SDS011;10525;50.154;8.198;2022-08-06T00:22:20;2.45;;;2.28;;
20727;SDS011;10525;50.154;8.198;2022-08-06T00:24:48;2.10;;;2.10;;
20727;SDS011;10525;50.154;8.198;2022-08-06T00:27:14;2.33;;;2.22;;
20727;SDS011;10525;50.154;8.198;2022-08-06T00:29:41;6.28;;;2.30;;
20727;SDS011;10525;50.154;8.198;2022-08-06T00:32:07;2.67;;;2.47;;
20727;SDS011;10525;50.154;8.198;2022-08-06T00:34:34;2.10;;;2.10;;
20727;SDS011;10525;50.154;8.198;2022-08-06T00:37:01;2.50;;;2.40;;
20727;SDS011;10525;50.154;8.198;2022-08-06T00:39:28;2.47;;;2.38;;
20727;SDS011;10525;50.154;8.198;2022-08-06T00:41:56;2.75;;;2.47;;
20727;SDS011;10525;50.154;8.198;2022-08-06T00:44:22;2.80;;;2.60;;
20727;SDS011;10525;50.154;8.198;2022-08-06T00:46:49;2.55;;;2.45;;
20727;SDS011;10525;50.154;8.198;2022-08-06T00:49:17;6.07;;;2.40;;
20727;SDS011;10525;50.154;8.198;2022-08-06T00:51:43;1.98;;;1.98;;
20727;SDS011;10525;50.154;8.198;2022-08-06T00:54:10;2.55;;;2.42;;
20727;SDS011;10525;50.154;8.198;2022-08-06T00:56:37;2.60;;;2.20;;
20727;SDS011;10525;50.154;8.198;2022-08-06T00:59:05;2.42;;;2.33;;
20727;SDS011;10525;50.154;8.198;2022-08-06T01:01:31;2.35;;;2.25;;
20727;SDS011;10525;50.154;8.198;2022-08-06T01:03:58;3.72;;;2.80;;
20727;SDS011;10525;50.154;8.198;2022-08-06T01:06:25;2.00;;;2.00;;
20727;SDS011;10525;50.154;8.198;2022-08-06T01:08:51;5.88;;;2.00;;
20727;SDS011;10525;50.154;8.198;2022-08-06T01:11:18;2.33;;;2.03;;
20727;SDS011;10525;50.154;8.198;2022-08-06T01:13:45;2.40;;;2.08;;
20727;SDS011;10525;50.154;8.198;2022-08-06T01:16:15;2.38;;;2.28;;
20727;SDS011;10525;50.154;8.198;2022-08-06T01:18:50;2.72;;;2.53;;
20727;SDS011;10525;50.154;8.198;2022-08-06T01:21:29;2.40;;;2.13;;
20727;SDS011;10525;50.154;8.198;2022-08-06T01:24:25;2.78;;;2.30;;
20727;SDS011;10525;50.154;8.198;2022-08-06T01:27:27;2.15;;;2.00;;
20727;SDS011;10525;50.154;8.198;2022-08-06T01:30:02;4.20;;;2.45;;
20727;SDS011;10525;50.154;8.198;2022-08-06T01:32:32;1.90;;;1.90;;
20727;SDS011;10525;50.154;8.198;2022-08-06T01:35:03;2.30;;;2.20;;
20727;SDS011;10525;50.154;8.198;2022-08-06T01:37:36;2.72;;;2.63;;
20727;SDS011;10525;50.154;8.198;2022-08-06T01:40:09;3.28;;;2.08;;
20727;SDS011;10525;50.154;8.198;2022-08-06T01:42:41;4.63;;;2.08;;
20727;SDS011;10525;50.154;8.198;2022-08-06T01:45:11;2.10;;;2.00;;
20727;SDS011;10525;50.154;8.198;2022-08-06T01:47:41;3.13;;;2.00;;
20727;SDS011;10525;50.154;8.198;2022-08-06T01:50:11;5.43;;;2.08;;
20727;SDS011;10525;50.154;8.198;2022-08-06T01:52:40;2.20;;;2.10;;
20727;SDS011;10525;50.154;8.198;2022-08-06T01:55:10;2.10;;;2.00;;
20727;SDS011;10525;50.154;8.198;2022-08-06T01:57:40;3.70;;;2.45;;
20727;SDS011;10525;50.154;8.198;2022-08-06T02:00:11;4.90;;;1.92;;
20727;SDS011;10525;50.154;8.198;2022-08-06T02:02:38;2.35;;;2.22;;
20727;SDS011;10525;50.154;8.198;2022-08-06T02:05:07;4.18;;;2.40;;
20727;SDS011;10525;50.154;8.198;2022-08-06T02:07:36;1.90;;;1.90;;
20727;SDS011;10525;50.154;8.198;2022-08-06T02:10:07;2.30;;;2.20;;
20727;SDS011;10525;50.154;8.198;2022-08-06T02:12:35;2.40;;;2.20;;
20727;SDS011;10525;50.154;8.198;2022-08-06T02:15:08;2.35;;;2.00;;
20727;SDS011;10525;50.154;8.198;2022-08-06T02:17:39;2.00;;;2.00;;
20727;SDS011;10525;50.154;8.198;2022-08-06T02:20:09;4.38;;;2.40;;
20727;SDS011;10525;50.154;8.198;2022-08-06T02:22:38;5.10;;;2.28;;
20727;SDS011;10525;50.154;8.198;2022-08-06T02:25:07;2.20;;;2.20;;
20727;SDS011;10525;50.154;8.198;2022-08-06T02:27:38;2.65;;;2.55;;
20727;SDS011;10525;50.154;8.198;2022-08-06T02:30:11;2.30;;;2.20;;
20727;SDS011;10525;50.154;8.198;2022-08-06T02:32:38;2.15;;;2.13;;
20727;SDS011;10525;50.154;8.198;2022-08-06T02:35:06;2.85;;;2.65;;
20727;SDS011;10525;50.154;8.198;2022-08-06T02:37:35;4.45;;;2.35;;
20727;SDS011;10525;50.154;8.198;2022-08-06T02:40:07;4.55;;;2.55;;
20727;SDS011;10525;50.154;8.198;2022-08-06T02:42:38;2.28;;;2.17;;
20727;SDS011;10525;50.154;8.198;2022-08-06T02:45:11;2.75;;;2.70;;
20727;SDS011;10525;50.154;8.198;2022-08-06T02:47:45;2.33;;;2.30;;
20727;SDS011;10525;50.154;8.198;2022-08-06T02:50:15;2.55;;;2.30;;
20727;SDS011;10525;50.154;8.198;2022-08-06T02:52:47;2.05;;;1.88;;
20727;SDS011;10525;50.154;8.198;2022-08-06T02:55:18;2.92;;;1.95;;
20727;SDS011;10525;50.154;8.198;2022-08-06T02:57:48;2.13;;;2.13;;
20727;SDS011;10525;50.154;8.198;2022-08-06T03:00:24;2.20;;;2.20;;
20727;SDS011;10525;50.154;8.198;2022-08-06T03:02:54;2.40;;;2.20;;
20727;SDS011;10525;50.154;8.198;2022-08-06T03:05:24;2.63;;;2.38;;
20727;SDS011;10525;50.154;8.198;2022-08-06T03:07:53;2.50;;;2.40;;
20727;SDS011;10525;50.154;8.198;2022-08-06T03:10:23;2.35;;;2.17;;
20727;SDS011;10525;50.154;8.198;2022-08-06T03:12:51;2.50;;;2.40;;
20727;SDS011;10525;50.154;8.198;2022-08-06T03:15:19;2.60;;;2.50;;
20727;SDS011;10525;50.154;8.198;2022-08-06T03:17:50;2.20;;;2.10;;
20727;SDS011;10525;50.154;8.198;2022-08-06T03:20:21;3.75;;;2.42;;
20727;SDS011;10525;50.154;8.198;2022-08-06T03:22:49;2.50;;;2.20;;
20727;SDS011;10525;50.154;8.198;2022-08-06T03:25:17;2.63;;;2.42;;
20727;SDS011;10525;50.154;8.198;2022-08-06T03:27:45;2.75;;;2.28;;
20727;SDS011;10525;50.154;8.198;2022-08-06T03:30:14;2.45;;;2.45;;
20727;SDS011;10525;50.154;8.198;2022-08-06T03:32:41;5.75;;;2.65;;
20727;SDS011;10525;50.154;8.198;2022-08-06T03:35:10;3.15;;;2.83;;
20727;SDS011;10525;50.154;8.198;2022-08-06T03:37:37;3.72;;;2.60;;
20727;SDS011;10525;50.154;8.198;2022-08-06T03:40:05;2.15;;;2.15;;
20727;SDS011;10525;50.154;8.198;2022-08-06T03:42:35;2.50;;;2.33;;
20727;SDS011;10525;50.154;8.198;2022-08-06T03:45:01;2.20;;;2.20;;
20727;SDS011;10525;50.154;8.198;2022-08-06T03:47:30;2.30;;;2.20;;
20727;SDS011;10525;50.154;8.198;2022-08-06T03:50:11;3.60;;;3.33;;
20727;SDS011;10525;50.154;8.198;2022-08-06T03:52:41;3.03;;;2.78;;
20727;SDS011;10525;50.154;8.198;2022-08-06T03:55:12;2.70;;;2.47;;
20727;SDS011;10525;50.154;8.198;2022-08-06T03:57:51;3.10;;;2.80;;
20727;SDS011;10525;50.154;8.198;2022-08-06T04:00:21;2.78;;;2.67;;
20727;SDS011;10525;50.154;8.198;2022-08-06T04:02:51;2.83;;;2.63;;
20727;SDS011;10525;50.154;8.198;2022-08-06T04:05:21;4.43;;;2.53;;
20727;SDS011;10525;50.154;8.198;2022-08-06T04:07:50;3.33;;;2.60;;
20727;SDS011;10525;50.154;8.198;2022-08-06T04:10:18;2.55;;;2.45;;
20727;SDS011;10525;50.154;8.198;2022-08-06T04:12:47;3.50;;;2.60;;
20727;SDS011;10525;50.154;8.198;2022-08-06T04:15:14;2.35;;;2.25;;
20727;SDS011;10525;50.154;8.198;2022-08-06T04:17:42;2.95;;;2.65;;
20727;SDS011;10525;50.154;8.198;2022-08-06T04:20:13;2.70;;;2.60;;
20727;SDS011;10525;50.154;8.198;2022-08-06T04:22:43;2.42;;;2.35;;
20727;SDS011;10525;50.154;8.198;2022-08-06T04:25:10;3.35;;;3.10;;
20727;SDS011;10525;50.154;8.198;2022-08-06T04:27:38;3.03;;;2.92;;
20727;SDS011;10525;50.154;8.198;2022-08-06T04:30:07;2.88;;;2.67;;
20727;SDS011;10525;50.154;8.198;2022-08-06T04:32:35;3.10;;;3.00;;
20727;SDS011;10525;50.154;8.198;2022-08-06T04:35:04;2.70;;;2.60;;
20727;SDS011;10525;50.154;8.198;2022-08-06T04:37:33;2.70;;;2.60;;
20727;SDS011;10525;50.154;8.198;2022-08-06T04:40:02;2.95;;;2.78;;
20727;SDS011;10525;50.154;8.198;2022-08-06T04:42:29;3.42;;;3.08;;
20727;SDS011;10525;50.154;8.198;2022-08-06T04:44:56;2.30;;;2.30;;
20727;SDS011;10525;50.154;8.198;2022-08-06T04:47:23;2.92;;;2.72;;
20727;SDS011;10525;50.154;8.198;2022-08-06T04:49:50;2.47;;;2.33;;
20727;SDS011;10525;50.154;8.198;2022-08-06T04:52:21;3.00;;;2.85;;
20727;SDS011;10525;50.154;8.198;2022-08-06T04:54:48;2.53;;;2.42;;
20727;SDS011;10525;50.154;8.198;2022-08-06T04:57:16;2.92;;;2.20;;
20727;SDS011;10525;50.154;8.198;2022-08-06T04:59:43;2.40;;;2.30;;
20727;SDS011;10525;50.154;8.198;2022-08-06T05:02:10;2.20;;;2.17;;
20727;SDS011;10525;50.154;8.198;2022-08-06T05:04:37;2.80;;;2.60;;
20727;SDS011;10525;50.154;8.198;2022-08-06T05:07:06;2.35;;;2.20;;
20727;SDS011;10525;50.154;8.198;2022-08-06T05:09:37;2.42;;;2.20;;
20727;SDS011;10525;50.154;8.198;2022-08-06T05:12:06;2.53;;;2.17;;
20727;SDS011;10525;50.154;8.198;2022-08-06T05:14:40;2.50;;;2.40;;
20727;SDS011;10525;50.154;8.198;2022-08-06T05:17:13;2.70;;;2.67;;
20727;SDS011;10525;50.154;8.198;2022-08-06T05:19:42;1.80;;;1.80;;
20727;SDS011;10525;50.154;8.198;2022-08-06T05:22:13;1.98;;;1.88;;
20727;SDS011;10525;50.154;8.198;2022-08-06T05:24:42;2.22;;;2.17;;
20727;SDS011;10525;50.154;8.198;2022-08-06T05:27:09;2.00;;;1.90;;
20727;SDS011;10525;50.154;8.198;2022-08-06T05:29:36;2.10;;;2.10;;
20727;SDS011;10525;50.154;8.198;2022-08-06T05:32:06;2.28;;;2.17;;
20727;SDS011;10525;50.154;8.198;2022-08-06T05:34:33;1.90;;;1.90;;
20727;SDS011;10525;50.154;8.198;2022-08-06T05:37:00;4.35;;;2.05;;
20727;SDS011;10525;50.154;8.198;2022-08-06T05:39:26;2.30;;;2.08;;
20727;SDS011;10525;50.154;8.198;2022-08-06T05:41:53;2.90;;;2.05;;
20727;SDS011;10525;50.154;8.198;2022-08-06T05:44:20;2.33;;;2.10;;
20727;SDS011;10525;50.154;8.198;2022-08-06T05:46:49;2.38;;;2.15;;
20727;SDS011;10525;50.154;8.198;2022-08-06T05:49:21;2.15;;;2.05;;
20727;SDS011;10525;50.154;8.198;2022-08-06T05:51:52;2.30;;;2.20;;
20727;SDS011;10525;50.154;8.198;2022-08-06T05:54:23;3.97;;;2.35;;
20727;SDS011;10525;50.154;8.198;2022-08-06T05:57:00;2.25;;;2.25;;
20727;SDS011;10525;50.154;8.198;2022-08-06T05:59:33;5.00;;;2.10;;
20727;SDS011;10525;50.154;8.198;2022-08-06T06:02:03;2.10;;;2.00;;
20727;SDS011;10525;50.154;8.198;2022-08-06T06:04:33;6.53;;;2.30;;
20727;SDS011;10525;50.154;8.198;2022-08-06T06:07:01;2.00;;;1.90;;
20727;SDS011;10525;50.154;8.198;2022-08-06T06:09:28;2.92;;;1.77;;
20727;SDS011;10525;50.154;8.198;2022-08-06T06:11:55;2.20;;;2.20;;
20727;SDS011;10525;50.154;8.198;2022-08-06T06:14:28;1.90;;;1.90;;
20727;SDS011;10525;50.154;8.198;2022-08-06T06:17:11;1.85;;;1.83;;
20727;SDS011;10525;50.154;8.198;2022-08-06T06:19:54;2.30;;;2.30;;
20727;SDS011;10525;50.154;8.198;2022-08-06T06:22:27;1.98;;;1.88;;
20727;SDS011;10525;50.154;8.198;2022-08-06T06:25:01;1.88;;;1.73;;
20727;SDS011;10525;50.154;8.198;2022-08-06T06:27:33;1.83;;;1.83;;
20727;SDS011;10525;50.154;8.198;2022-08-06T06:30:08;1.88;;;1.88;;
20727;SDS011;10525;50.154;8.198;2022-08-06T06:32:42;1.60;;;1.50;;
20727;SDS011;10525;50.154;8.198;2022-08-06T06:35:26;3.05;;;2.05;;
20727;SDS011;10525;50.154;8.198;2022-08-06T06:37:59;1.58;;;1.45;;
20727;SDS011;10525;50.154;8.198;2022-08-06T06:40:46;1.98;;;1.80;;
20727;SDS011;10525;50.154;8.198;2022-08-06T06:43:20;1.70;;;1.60;;
20727;SDS011;10525;50.154;8.198;2022-08-06T06:45:52;1.50;;;1.50;;
20727;SDS011;10525;50.154;8.198;2022-08-06T06:48:25;1.75;;;1.30;;
20727;SDS011;10525;50.154;8.198;2022-08-06T06:50:59;1.52;;;1.50;;
20727;SDS011;10525;50.154;8.198;2022-08-06T06:53:32;1.40;;;1.40;;
20727;SDS011;10525;50.154;8.198;2022-08-06T06:56:03;1.60;;;1.50;;
20727;SDS011;10525;50.154;8.198;2022-08-06T06:58:33;1.33;;;1.33;;
20727;SDS011;10525;50.154;8.198;2022-08-06T07:01:03;1.55;;;1.48;;
20727;SDS011;10525;50.154;8.198;2022-08-06T07:03:32;1.30;;;1.30;;
20727;SDS011;10525;50.154;8.198;2022-08-06T07:06:02;1.90;;;1.60;;
20727;SDS011;10525;50.154;8.198;2022-08-06T07:08:33;1.50;;;1.40;;
20727;SDS011;10525;50.154;8.198;2022-08-06T07:11:06;2.30;;;1.60;;
20727;SDS011;10525;50.154;8.198;2022-08-06T07:13:34;1.77;;;1.60;;
20727;SDS011;10525;50.154;8.198;2022-08-06T07:16:02;1.60;;;1.60;;
20727;SDS011;10525;50.154;8.198;2022-08-06T07:18:31;4.28;;;1.27;;
20727;SDS011;10525;50.154;8.198;2022-08-06T07:20:59;2.13;;;2.03;;
20727;SDS011;10525;50.154;8.198;2022-08-06T07:23:28;4.80;;;1.33;;
20727;SDS011;10525;50.154;8.198;2022-08-06T07:25:55;1.35;;;1.35;;
20727;SDS011;10525;50.154;8.198;2022-08-06T07:28:24;1.35;;;1.25;;
20727;SDS011;10525;50.154;8.198;2022-08-06T07:30:52;1.20;;;1.20;;
20727;SDS011;10525;50.154;8.198;2022-08-06T07:33:20;1.30;;;1.30;;
20727;SDS011;10525;50.154;8.198;2022-08-06T07:35:49;1.90;;;1.30;;
20727;SDS011;10525;50.154;8.198;2022-08-06T07:38:17;1.40;;;1.40;;
20727;SDS011;10525;50.154;8.198;2022-08-06T07:40:48;1.50;;;1.50;;
20727;SDS011;10525;50.154;8.198;2022-08-06T07:43:19;1.33;;;1.23;;
20727;SDS011;10525;50.154;8.198;2022-08-06T07:45:49;1.48;;;1.38;;
20727;SDS011;10525;50.154;8.198;2022-08-06T07:48:18;1.20;;;1.13;;
20727;SDS011;10525;50.154;8.198;2022-08-06T07:50:49;3.80;;;1.45;;
20727;SDS011;10525;50.154;8.198;2022-08-06T07:53:18;1.48;;;1.15;;
20727;SDS011;10525;50.154;8.198;2022-08-06T07:55:47;3.15;;;1.40;;
20727;SDS011;10525;50.154;8.198;2022-08-06T07:58:14;2.85;;;1.30;;
20727;SDS011;10525;50.154;8.198;2022-08-06T08:00:41;6.88;;;1.50;;
20727;SDS011;10525;50.154;8.198;2022-08-06T08:03:09;2.58;;;1.35;;
20727;SDS011;10525;50.154;8.198;2022-08-06T08:05:54;2.95;;;1.35;;
20727;SDS011;10525;50.154;8.198;2022-08-06T08:08:39;1.42;;;1.42;;
20727;SDS011;10525;50.154;8.198;2022-08-06T08:11:07;2.85;;;1.30;;
20727;SDS011;10525;50.154;8.198;2022-08-06T08:13:35;2.40;;;1.38;;
20727;SDS011;10525;50.154;8.198;2022-08-06T08:16:03;1.00;;;1.00;;
20727;SDS011;10525;50.154;8.198;2022-08-06T08:18:31;1.38;;;1.27;;
20727;SDS011;10525;50.154;8.198;2022-08-06T08:20:58;1.80;;;1.70;;
20727;SDS011;10525;50.154;8.198;2022-08-06T08:23:26;1.23;;;1.10;;
20727;SDS011;10525;50.154;8.198;2022-08-06T08:25:55;1.08;;;1.02;;
20727;SDS011;10525;50.154;8.198;2022-08-06T08:28:24;1.25;;;1.23;;
20727;SDS011;10525;50.154;8.198;2022-08-06T08:30:51;1.38;;;1.10;;
20727;SDS011;10525;50.154;8.198;2022-08-06T08:33:18;3.83;;;1.38;;
20727;SDS011;10525;50.154;8.198;2022-08-06T08:35:45;1.00;;;1.00;;
20727;SDS011;10525;50.154;8.198;2022-08-06T08:38:13;1.45;;;1.13;;
20727;SDS011;10525;50.154;8.198;2022-08-06T08:40:39;1.95;;;1.10;;
20727;SDS011;10525;50.154;8.198;2022-08-06T08:43:07;1.30;;;1.20;;
20727;SDS011;10525;50.154;8.198;2022-08-06T08:45:39;2.30;;;1.08;;
20727;SDS011;10525;50.154;8.198;2022-08-06T08:48:10;1.77;;;1.05;;
20727;SDS011;10525;50.154;8.198;2022-08-06T08:50:38;1.60;;;1.00;;
20727;SDS011;10525;50.154;8.198;2022-08-06T08:53:09;5.13;;;1.95;;
20727;SDS011;10525;50.154;8.198;2022-08-06T08:55:39;2.40;;;1.10;;
20727;SDS011;10525;50.154;8.198;2022-08-06T08:58:06;1.35;;;1.00;;
20727;SDS011;10525;50.154;8.198;2022-08-06T09:00:33;1.23;;;1.10;;
20727;SDS011;10525;50.154;8.198;2022-08-06T09:03:03;1.92;;;0.93;;
20727;SDS011;10525;50.154;8.198;2022-08-06T09:05:30;2.20;;;1.00;;
20727;SDS011;10525;50.154;8.198;2022-08-06T09:07:57;3.58;;;0.90;;
20727;SDS011;10525;50.154;8.198;2022-08-06T09:10:25;1.13;;;0.95;;
20727;SDS011;10525;50.154;8.198;2022-08-06T09:12:52;3.28;;;0.80;;
20727;SDS011;10525;50.154;8.198;2022-08-06T09:15:19;1.40;;;1.10;;
20727;SDS011;10525;50.154;8.198;2022-08-06T09:17:46;9.00;;;1.02;;
20727;SDS011;10525;50.154;8.198;2022-08-06T09:20:15;2.60;;;1.00;;
20727;SDS011;10525;50.154;8.198;2022-08-06T09:22:42;2.22;;;1.13;;
20727;SDS011;10525;50.154;8.198;2022-08-06T09:28:03;4.93;;;1.33;;
20727;SDS011;10525;50.154;8.198;2022-08-06T09:30:34;1.10;;;1.10;;
20727;SDS011;10525;50.154;8.198;2022-08-06T09:33:00;3.58;;;1.05;;
20727;SDS011;10525;50.154;8.198;2022-08-06T09:35:30;2.05;;;1.23;;
20727;SDS011;10525;50.154;8.198;2022-08-06T09:38:00;1.65;;;0.80;;
20727;SDS011;10525;50.154;8.198;2022-08-06T09:40:28;1.95;;;0.98;;
20727;SDS011;10525;50.154;8.198;2022-08-06T09:42:55;0.82;;;0.82;;
20727;SDS011;10525;50.154;8.198;2022-08-06T09:45:23;0.98;;;0.98;;
20727;SDS011;10525;50.154;8.198;2022-08-06T09:47:59;0.80;;;0.80;;
20727;SDS011;10525;50.154;8.198;2022-08-06T09:50:38;3.00;;;1.08;;
20727;SDS011;10525;50.154;8.198;2022-08-06T09:53:06;1.75;;;0.95;;
20727;SDS011;10525;50.154;8.198;2022-08-06T09:55:33;1.02;;;0.90;;
20727;SDS011;10525;50.154;8.198;2022-08-06T09:58:00;2.75;;;1.00;;
20727;SDS011;10525;50.154;8.198;2022-08-06T10:00:27;2.05;;;1.23;;
20727;SDS011;10525;50.154;8.198;2022-08-06T10:02:56;0.80;;;0.80;;
20727;SDS011;10525;50.154;8.198;2022-08-06T10:05:23;0.95;;;0.95;;
20727;SDS011;10525;50.154;8.198;2022-08-06T10:08:08;0.93;;;0.93;;
20727;SDS011;10525;50.154;8.198;2022-08-06T10:10:44;4.68;;;2.05;;
20727;SDS011;10525;50.154;8.198;2022-08-06T10:13:13;1.27;;;0.80;;
20727;SDS011;10525;50.154;8.198;2022-08-06T10:15:42;1.42;;;1.33;;
20727;SDS011;10525;50.154;8.198;2022-08-06T10:18:09;3.33;;;1.00;;
20727;SDS011;10525;50.154;8.198;2022-08-06T10:20:36;1.00;;;1.00;;
20727;SDS011;10525;50.154;8.198;2022-08-06T10:23:03;0.90;;;0.90;;
20727;SDS011;10525;50.154;8.198;2022-08-06T10:25:38;1.85;;;1.27;;
20727;SDS011;10525;50.154;8.198;2022-08-06T10:28:04;1.38;;;0.95;;
20727;SDS011;10525;50.154;8.198;2022-08-06T10:30:31;1.30;;;0.80;;
20727;SDS011;10525;50.154;8.198;2022-08-06T10:32:59;1.63;;;1.55;;
20727;SDS011;10525;50.154;8.198;2022-08-06T10:35:30;1.85;;;1.00;;
20727;SDS011;10525;50.154;8.198;2022-08-06T10:38:02;0.80;;;0.80;;
20727;SDS011;10525;50.154;8.198;2022-08-06T10:40:31;5.68;;;1.10;;
20727;SDS011;10525;50.154;8.198;2022-08-06T10:43:02;1.00;;;1.00;;
20727;SDS011;10525;50.154;8.198;2022-08-06T10:45:31;0.88;;;0.88;;
20727;SDS011;10525;50.154;8.198;2022-08-06T10:47:58;3.78;;;1.10;;
20727;SDS011;10525;50.154;8.198;2022-08-06T10:50:25;3.70;;;0.95;;
20727;SDS011;10525;50.154;8.198;2022-08-06T10:52:52;1.80;;;0.90;;
20727;SDS011;10525;50.154;8.198;2022-08-06T10:55:20;2.72;;;1.10;;
20727;SDS011;10525;50.154;8.198;2022-08-06T10:57:49;0.90;;;0.90;;
20727;SDS011;10525;50.154;8.198;2022-08-06T11:00:16;1.17;;;1.17;;
20727;SDS011;10525;50.154;8.198;2022-08-06T11:02:45;0.90;;;0.90;;
20727;SDS011;10525;50.154;8.198;2022-08-06T11:05:19;1.00;;;1.00;;
20727;SDS011;10525;50.154;8.198;2022-08-06T11:08:02;0.90;;;0.90;;
20727;SDS011;10525;50.154;8.198;2022-08-06T11:10:42;3.72;;;0.88;;
20727;SDS011;10525;50.154;8.198;2022-08-06T11:13:26;1.00;;;1.00;;
20727;SDS011;10525;50.154;8.198;2022-08-06T11:15:55;0.80;;;0.80;;
20727;SDS011;10525;50.154;8.198;2022-08-06T11:18:22;3.13;;;1.00;;
20727;SDS011;10525;50.154;8.198;2022-08-06T11:20:49;1.67;;;0.80;;
20727;SDS011;10525;50.154;8.198;2022-08-06T11:23:24;0.98;;;0.75;;
20727;SDS011;10525;50.154;8.198;2022-08-06T11:25:56;0.88;;;0.88;;
20727;SDS011;10525;50.154;8.198;2022-08-06T11:31:34;0.80;;;0.80;;
20727;SDS011;10525;50.154;8.198;2022-08-06T11:34:04;3.30;;;1.20;;
20727;SDS011;10525;50.154;8.198;2022-08-06T11:36:53;0.82;;;0.82;;
20727;SDS011;10525;50.154;8.198;2022-08-06T11:39:22;0.90;;;0.90;;
20727;SDS011;10525;50.154;8.198;2022-08-06T11:41:51;0.90;;;0.90;;
20727;SDS011;10525;50.154;8.198;2022-08-06T11:44:21;0.77;;;0.77;;
20727;SDS011;10525;50.154;8.198;2022-08-06T11:46:49;1.20;;;0.93;;
20727;SDS011;10525;50.154;8.198;2022-08-06T11:49:35;0.70;;;0.70;;
20727;SDS011;10525;50.154;8.198;2022-08-06T11:52:04;1.08;;;0.75;;
20727;SDS011;10525;50.154;8.198;2022-08-06T11:54:31;0.93;;;0.90;;
20727;SDS011;10525;50.154;8.198;2022-08-06T11:57:17;0.88;;;0.80;;
20727;SDS011;10525;50.154;8.198;2022-08-06T11:59:47;2.22;;;0.80;;
20727;SDS011;10525;50.154;8.198;2022-08-06T12:02:48;3.55;;;0.80;;
20727;SDS011;10525;50.154;8.198;2022-08-06T12:05:34;1.30;;;0.85;;
20727;SDS011;10525;50.154;8.198;2022-08-06T12:14:00;0.82;;;0.82;;
20727;SDS011;10525;50.154;8.198;2022-08-06T12:16:30;0.98;;;0.98;;
20727;SDS011;10525;50.154;8.198;2022-08-06T12:19:00;0.90;;;0.90;;
20727;SDS011;10525;50.154;8.198;2022-08-06T12:21:28;0.65;;;0.65;;
20727;SDS011;10525;50.154;8.198;2022-08-06T12:23:55;0.70;;;0.70;;
20727;SDS011;10525;50.154;8.198;2022-08-06T12:26:22;0.98;;;0.90;;
20727;SDS011;10525;50.154;8.198;2022-08-06T12:28:49;0.70;;;0.70;;
20727;SDS011;10525;50.154;8.198;2022-08-06T12:31:30;1.52;;;0.80;;
20727;SDS011;10525;50.154;8.198;2022-08-06T12:33:59;2.80;;;0.85;;
20727;SDS011;10525;50.154;8.198;2022-08-06T12:36:28;0.70;;;0.70;;
20727;SDS011;10525;50.154;8.198;2022-08-06T12:38:56;1.10;;;1.00;;
20727;SDS011;10525;50.154;8.198;2022-08-06T12:41:31;1.10;;;0.82;;
20727;SDS011;10525;50.154;8.198;2022-08-06T12:43:59;0.70;;;0.70;;
20727;SDS011;10525;50.154;8.198;2022-08-06T12:46:26;0.85;;;0.85;;
20727;SDS011;10525;50.154;8.198;2022-08-06T12:48:54;0.60;;;0.60;;
20727;SDS011;10525;50.154;8.198;2022-08-06T12:51:20;0.60;;;0.60;;
20727;SDS011;10525;50.154;8.198;2022-08-06T12:53:48;0.63;;;0.60;;
20727;SDS011;10525;50.154;8.198;2022-08-06T12:56:17;4.75;;;1.13;;
20727;SDS011;10525;50.154;8.198;2022-08-06T12:58:45;1.35;;;0.70;;
20727;SDS011;10525;50.154;8.198;2022-08-06T13:01:13;1.38;;;1.00;;
20727;SDS011;10525;50.154;8.198;2022-08-06T13:03:42;0.95;;;0.80;;
20727;SDS011;10525;50.154;8.198;2022-08-06T13:06:13;0.60;;;0.60;;
20727;SDS011;10525;50.154;8.198;2022-08-06T13:08:42;0.80;;;0.68;;
20727;SDS011;10525;50.154;8.198;2022-08-06T13:11:11;2.05;;;1.00;;
20727;SDS011;10525;50.154;8.198;2022-08-06T13:13:40;1.60;;;0.75;;
20727;SDS011;10525;50.154;8.198;2022-08-06T13:16:13;0.80;;;0.80;;
20727;SDS011;10525;50.154;8.198;2022-08-06T13:18:42;0.68;;;0.68;;
20727;SDS011;10525;50.154;8.198;2022-08-06T13:21:29;1.00;;;0.90;;
20727;SDS011;10525;50.154;8.198;2022-08-06T13:23:56;0.60;;;0.60;;
20727;SDS011;10525;50.154;8.198;2022-08-06T13:26:23;0.50;;;0.50;;
20727;SDS011;10525;50.154;8.198;2022-08-06T13:29:04;1.65;;;1.02;;
20727;SDS011;10525;50.154;8.198;2022-08-06T13:31:32;0.63;;;0.63;;
20727;SDS011;10525;50.154;8.198;2022-08-06T13:33:59;0.60;;;0.60;;
20727;SDS011;10525;50.154;8.198;2022-08-06T13:36:26;0.68;;;0.68;;
20727;SDS011;10525;50.154;8.198;2022-08-06T13:38:55;1.02;;;0.80;;
20727;SDS011;10525;50.154;8.198;2022-08-06T13:41:25;0.65;;;0.65;;
20727;SDS011;10525;50.154;8.198;2022-08-06T13:43:52;1.70;;;1.30;;
20727;SDS011;10525;50.154;8.198;2022-08-06T13:46:19;3.42;;;0.80;;
20727;SDS011;10525;50.154;8.198;2022-08-06T13:48:51;0.70;;;0.70;;
20727;SDS011;10525;50.154;8.198;2022-08-06T13:51:19;1.60;;;0.95;;
20727;SDS011;10525;50.154;8.198;2022-08-06T13:53:49;1.27;;;0.77;;
20727;SDS011;10525;50.154;8.198;2022-08-06T13:56:16;0.60;;;0.60;;
20727;SDS011;10525;50.154;8.198;2022-08-06T13:58:43;0.85;;;0.85;;
20727;SDS011;10525;50.154;8.198;2022-08-06T14:01:10;0.60;;;0.60;;
20727;SDS011;10525;50.154;8.198;2022-08-06T14:03:37;1.85;;;0.68;;
20727;SDS011;10525;50.154;8.198;2022-08-06T14:06:04;0.68;;;0.68;;
20727;SDS011;10525;50.154;8.198;2022-08-06T14:08:31;2.80;;;1.08;;
20727;SDS011;10525;50.154;8.198;2022-08-06T14:10:59;1.75;;;0.80;;
20727;SDS011;10525;50.154;8.198;2022-08-06T14:13:26;0.80;;;0.80;;
20727;SDS011;10525;50.154;8.198;2022-08-06T14:15:53;0.60;;;0.60;;
20727;SDS011;10525;50.154;8.198;2022-08-06T14:18:20;2.35;;;0.65;;
20727;SDS011;10525;50.154;8.198;2022-08-06T14:20:47;1.42;;;0.80;;
20727;SDS011;10525;50.154;8.198;2022-08-06T14:23:14;1.02;;;0.80;;
20727;SDS011;10525;50.154;8.198;2022-08-06T14:25:41;1.10;;;0.88;;
20727;SDS011;10525;50.154;8.198;2022-08-06T14:28:09;3.72;;;1.05;;
20727;SDS011;10525;50.154;8.198;2022-08-06T14:30:36;1.95;;;0.80;;
20727;SDS011;10525;50.154;8.198;2022-08-06T14:33:03;0.70;;;0.70;;
20727;SDS011;10525;50.154;8.198;2022-08-06T14:35:33;1.73;;;1.25;;
20727;SDS011;10525;50.154;8.198;2022-08-06T14:38:01;0.65;;;0.65;;
20727;SDS011;10525;50.154;8.198;2022-08-06T14:40:27;0.60;;;0.60;;
20727;SDS011;10525;50.154;8.198;2022-08-06T14:43:13;0.70;;;0.70;;
20727;SDS011;10525;50.154;8.198;2022-08-06T14:45:57;0.60;;;0.60;;
20727;SDS011;10525;50.154;8.198;2022-08-06T14:48:24;0.77;;;0.77;;
20727;SDS011;10525;50.154;8.198;2022-08-06T14:50:51;0.80;;;0.80;;
20727;SDS011;10525;50.154;8.198;2022-08-06T14:53:18;0.60;;;0.60;;
20727;SDS011;10525;50.154;8.198;2022-08-06T14:55:45;0.63;;;0.63;;
20727;SDS011;10525;50.154;8.198;2022-08-06T14:58:11;1.52;;;0.85;;
20727;SDS011;10525;50.154;8.198;2022-08-06T15:00:39;0.80;;;0.80;;
20727;SDS011;10525;50.154;8.198;2022-08-06T15:03:06;1.02;;;0.60;;
20727;SDS011;10525;50.154;8.198;2022-08-06T15:05:33;0.88;;;0.60;;
20727;SDS011;10525;50.154;8.198;2022-08-06T15:08:00;2.03;;;0.80;;
20727;SDS011;10525;50.154;8.198;2022-08-06T15:10:27;0.77;;;0.73;;
20727;SDS011;10525;50.154;8.198;2022-08-06T15:12:53;2.60;;;0.75;;
20727;SDS011;10525;50.154;8.198;2022-08-06T15:15:22;2.30;;;0.70;;